createdAt,value
2023-01-27T00:01:09.570Z,64.10
2023-01-27T00:03:36.141Z,64.31
2023-01-27T00:06:04.626Z,64.35
2023-01-27T00:08:31.141Z,64.44
2023-01-27T00:11:19.153Z,64.43
2023-01-27T00:13:45.552Z,64.84
2023-01-27T00:16:11.953Z,64.78
2023-01-27T00:18:38.361Z,64.45
2023-01-27T00:21:23.643Z,64.60
2023-01-27T00:24:08.543Z,64.85
2023-01-27T00:26:34.937Z,65.05
2023-01-27T00:29:01.354Z,65.18
2023-01-27T00:31:46.144Z,65.51
2023-01-27T00:34:12.782Z,65.28
2023-01-27T00:36:41.182Z,65.64
2023-01-27T00:39:11.680Z,65.79
2023-01-27T00:41:40.368Z,65.43
2023-01-27T00:44:07.396Z,65.70
2023-01-27T00:46:34.400Z,66.04
2023-01-27T00:49:00.901Z,66.02
2023-01-27T00:51:27.263Z,65.99
2023-01-27T00:53:53.653Z,66.09
2023-01-27T00:56:20.119Z,66.12
2023-01-27T00:58:46.641Z,66.11
2023-01-27T01:01:17.093Z,66.58
2023-01-27T01:03:43.921Z,66.64
2023-01-27T01:06:13.427Z,66.43
2023-01-27T01:08:40.155Z,66.58
2023-01-27T01:11:08.557Z,66.66
2023-01-27T01:13:35.286Z,66.94
2023-01-27T01:16:10.440Z,66.70
2023-01-27T01:18:37.780Z,67.04
2023-01-27T01:21:04.491Z,67.27
2023-01-27T01:23:30.872Z,66.86
2023-01-27T01:25:58.016Z,67.22
2023-01-27T01:28:25.243Z,67.00
2023-01-27T01:30:52.069Z,66.93
2023-01-27T01:33:18.475Z,67.09
2023-01-27T01:35:44.891Z,67.47
2023-01-27T01:38:11.286Z,67.30
2023-01-27T01:40:42.550Z,67.59
2023-01-27T01:43:17.687Z,67.17
2023-01-27T01:45:53.060Z,67.18
2023-01-27T01:48:36.154Z,67.66
2023-01-27T01:51:18.338Z,67.76
2023-01-27T01:54:11.659Z,67.65
2023-01-27T01:56:53.172Z,67.48
2023-01-27T01:59:24.163Z,67.70
2023-01-27T02:01:55.293Z,67.99
2023-01-27T02:04:25.338Z,67.87
2023-01-27T02:06:54.653Z,67.78
2023-01-27T02:09:22.154Z,67.87
2023-01-27T02:11:48.535Z,67.29
2023-01-27T02:14:17.142Z,67.70
2023-01-27T02:16:44.457Z,67.34
2023-01-27T02:19:21.234Z,67.43
2023-01-27T02:21:50.469Z,67.45
2023-01-27T02:24:16.904Z,67.40
2023-01-27T02:26:44.613Z,67.39
2023-01-27T02:29:14.021Z,67.61
2023-01-27T02:31:41.045Z,67.79
2023-01-27T02:34:37.682Z,67.46
2023-01-27T02:37:08.570Z,67.42
2023-01-27T02:39:41.530Z,67.16
2023-01-27T02:42:11.917Z,67.33
2023-01-27T02:44:38.307Z,67.53
2023-01-27T02:47:04.757Z,67.02
2023-01-27T02:49:31.103Z,67.06
2023-01-27T02:51:57.485Z,67.31
2023-01-27T02:54:28.352Z,67.33
2023-01-27T02:56:54.708Z,67.14
2023-01-27T02:59:21.107Z,67.19
2023-01-27T03:01:47.630Z,67.16
2023-01-27T03:04:15.717Z,67.04
2023-01-27T03:06:42.160Z,67.18
2023-01-27T03:09:08.518Z,66.86
2023-01-27T03:11:53.429Z,66.88
2023-01-27T03:14:19.878Z,66.79
2023-01-27T03:17:04.838Z,66.56
2023-01-27T03:19:31.372Z,66.78
2023-01-27T03:21:57.739Z,67.06
2023-01-27T03:24:24.233Z,66.99
2023-01-27T03:26:50.607Z,66.96
2023-01-27T03:29:35.653Z,67.19
2023-01-27T03:32:01.999Z,67.30
2023-01-27T03:34:28.312Z,67.37
2023-01-27T03:37:13.254Z,67.19
2023-01-27T03:39:58.447Z,67.46
2023-01-27T03:42:43.156Z,67.63
2023-01-27T03:45:28.620Z,67.67
2023-01-27T03:47:55.051Z,67.68
2023-01-27T03:50:37.262Z,67.79
2023-01-27T03:53:04.699Z,67.84
2023-01-27T03:55:32.772Z,68.11
2023-01-27T03:58:14.527Z,68.08
2023-01-27T04:00:41.298Z,68.14
2023-01-27T04:03:26.481Z,67.80
2023-01-27T04:06:11.130Z,68.24
2023-01-27T04:08:37.692Z,67.84
2023-01-27T04:11:23.637Z,67.93
2023-01-27T04:13:50.306Z,67.67
2023-01-27T04:16:19.856Z,67.91
2023-01-27T04:18:49.871Z,68.39
2023-01-27T04:21:17.177Z,68.20
2023-01-27T04:23:43.554Z,68.09
2023-01-27T04:26:09.869Z,67.78
2023-01-27T04:28:44.138Z,68.12
2023-01-27T04:31:11.008Z,67.68
2023-01-27T04:33:37.464Z,68.12
2023-01-27T04:36:04.078Z,67.76
2023-01-27T04:38:30.515Z,68.31
2023-01-27T04:40:56.964Z,67.62
2023-01-27T04:43:23.350Z,68.21
2023-01-27T04:45:49.748Z,67.73
2023-01-27T04:48:16.262Z,68.03
2023-01-27T04:50:42.727Z,67.88
2023-01-27T04:53:09.174Z,67.70
2023-01-27T04:55:35.551Z,67.82
2023-01-27T04:58:01.908Z,67.54
2023-01-27T05:00:28.243Z,67.91
2023-01-27T05:02:54.637Z,67.41
2023-01-27T05:05:21.186Z,67.40
2023-01-27T05:07:47.630Z,67.49
2023-01-27T05:10:14.032Z,67.72
2023-01-27T05:12:40.559Z,67.43
2023-01-27T05:15:07.641Z,67.49
2023-01-27T05:17:37.318Z,67.92
2023-01-27T05:20:04.505Z,67.56
2023-01-27T05:22:30.939Z,67.71
2023-01-27T05:24:57.369Z,67.72
2023-01-27T05:27:24.035Z,67.88
2023-01-27T05:29:50.404Z,67.93
2023-01-27T05:32:16.797Z,67.44
2023-01-27T05:34:43.212Z,67.47
2023-01-27T05:37:09.588Z,67.08
2023-01-27T05:39:35.941Z,67.33
2023-01-27T05:42:02.307Z,67.57
2023-01-27T05:44:28.657Z,67.12
2023-01-27T05:46:54.989Z,67.19
2023-01-27T05:49:21.339Z,67.70
2023-01-27T05:51:47.764Z,67.48
2023-01-27T05:54:14.107Z,67.51
2023-01-27T05:56:40.645Z,67.29
2023-01-27T05:59:07.764Z,67.38
2023-01-27T06:01:35.358Z,67.68
2023-01-27T06:04:02.086Z,67.66
2023-01-27T06:06:30.652Z,68.00
2023-01-27T06:08:57.535Z,67.95
2023-01-27T06:11:24.935Z,67.54
2023-01-27T06:13:53.230Z,67.72
2023-01-27T06:16:21.122Z,67.83
2023-01-27T06:18:48.207Z,67.75
2023-01-27T06:21:16.277Z,67.45
2023-01-27T06:23:42.862Z,67.68
2023-01-27T06:26:12.292Z,67.71
2023-01-27T06:28:39.350Z,68.07
2023-01-27T06:31:09.871Z,67.75
2023-01-27T06:33:36.648Z,67.75
2023-01-27T06:36:05.794Z,68.13
2023-01-27T06:38:32.642Z,67.74
2023-01-27T06:40:59.805Z,67.99
2023-01-27T06:43:26.539Z,68.36
2023-01-27T06:45:53.844Z,68.18
2023-01-27T06:48:20.328Z,68.14
2023-01-27T06:50:46.746Z,67.83
2023-01-27T06:53:13.113Z,68.21
2023-01-27T06:55:41.531Z,67.96
2023-01-27T06:58:09.124Z,68.25
2023-01-27T07:00:36.643Z,67.72
2023-01-27T07:03:03.958Z,68.07
2023-01-27T07:05:30.687Z,67.90
2023-01-27T07:07:57.029Z,68.36
2023-01-27T07:10:23.394Z,67.81
2023-01-27T07:12:49.891Z,68.07
2023-01-27T07:15:16.298Z,68.03
2023-01-27T07:17:43.043Z,67.89
2023-01-27T07:20:12.988Z,68.07
2023-01-27T07:22:39.639Z,67.69
2023-01-27T07:25:07.676Z,67.73
2023-01-27T07:27:34.121Z,67.88
2023-01-27T07:30:00.539Z,67.50
2023-01-27T07:32:28.422Z,67.68
2023-01-27T07:34:54.881Z,67.35
2023-01-27T07:37:21.496Z,67.86
2023-01-27T07:39:48.209Z,67.80
2023-01-27T07:42:14.579Z,67.64
2023-01-27T07:44:40.925Z,67.83
2023-01-27T07:47:07.318Z,67.82
2023-01-27T07:49:33.647Z,68.08
2023-01-27T07:52:00.041Z,68.02
2023-01-27T07:54:27.200Z,67.75
2023-01-27T07:56:53.542Z,67.72
2023-01-27T07:59:19.905Z,67.50
2023-01-27T08:01:48.188Z,67.63
2023-01-27T08:04:15.082Z,67.23
2023-01-27T08:06:41.466Z,67.32
2023-01-27T08:09:08.012Z,67.35
2023-01-27T08:11:34.631Z,67.21
2023-01-27T08:14:01.399Z,67.33
2023-01-27T08:16:28.248Z,67.34
2023-01-27T08:18:54.682Z,67.26
2023-01-27T08:21:21.510Z,66.89
2023-01-27T08:23:48.093Z,66.95
2023-01-27T08:26:14.553Z,66.73
2023-01-27T08:28:41.109Z,66.29
2023-01-27T08:31:13.292Z,66.60
2023-01-27T08:33:40.549Z,66.36
2023-01-27T08:36:11.254Z,66.35
2023-01-27T08:38:39.108Z,66.28
2023-01-27T08:41:07.135Z,65.98
2023-01-27T08:43:33.601Z,66.38
2023-01-27T08:46:00.874Z,65.96
2023-01-27T08:48:31.484Z,66.06
2023-01-27T08:50:58.808Z,66.28
2023-01-27T08:53:26.061Z,65.98
2023-01-27T08:55:54.845Z,65.86
2023-01-27T08:58:21.849Z,66.15
2023-01-27T09:00:48.683Z,65.94
2023-01-27T09:03:15.895Z,66.39
2023-01-27T09:05:42.339Z,65.63
2023-01-27T09:08:09.373Z,65.75
2023-01-27T09:10:40.664Z,65.54
2023-01-27T09:13:08.660Z,65.58
2023-01-27T09:15:36.500Z,65.84
2023-01-27T09:18:06.286Z,65.83
2023-01-27T09:20:34.376Z,65.54
2023-01-27T09:23:01.095Z,65.53
2023-01-27T09:25:27.592Z,65.83
2023-01-27T09:27:55.559Z,65.51
2023-01-27T09:30:23.196Z,65.51
2023-01-27T09:32:50.185Z,65.55
2023-01-27T09:35:17.122Z,65.58
2023-01-27T09:37:56.807Z,65.43
2023-01-27T09:40:52.401Z,65.41
2023-01-27T09:43:57.518Z,65.35
2023-01-27T09:46:48.148Z,65.22
2023-01-27T09:49:23.981Z,65.43
2023-01-27T09:51:53.385Z,65.66
2023-01-27T09:54:43.262Z,65.55
2023-01-27T09:57:21.209Z,64.90
2023-01-27T10:00:02.819Z,65.40
2023-01-27T10:03:06.775Z,64.88
2023-01-27T10:05:47.156Z,65.37
2023-01-27T10:08:44.902Z,65.03
2023-01-27T10:11:35.432Z,64.27
2023-01-27T10:14:26.732Z,64.49
2023-01-27T10:17:21.045Z,64.51
2023-01-27T10:20:02.521Z,64.03
2023-01-27T10:22:58.238Z,63.68
2023-01-27T10:25:35.308Z,64.10
2023-01-27T10:28:11.070Z,63.23
2023-01-27T10:30:42.249Z,63.54
2023-01-27T10:33:18.878Z,62.95
2023-01-27T10:35:58.113Z,63.03
2023-01-27T10:38:27.215Z,63.22
2023-01-27T10:41:25.537Z,62.75
2023-01-27T10:44:08.733Z,62.78
2023-01-27T10:46:41.852Z,62.45
2023-01-27T10:49:12.782Z,62.10
2023-01-27T10:51:47.083Z,62.15
2023-01-27T10:54:25.181Z,62.46
2023-01-27T10:56:59.802Z,62.24
2023-01-27T10:59:46.390Z,62.50
2023-01-27T11:02:33.866Z,61.78
2023-01-27T11:05:05.131Z,61.67
2023-01-27T11:07:39.729Z,61.81
2023-01-27T11:10:14.205Z,61.52
2023-01-27T11:12:45.044Z,61.41
2023-01-27T11:15:18.824Z,61.65
2023-01-27T11:17:52.584Z,61.31
2023-01-27T11:20:38.158Z,61.55
2023-01-27T11:23:07.381Z,61.06
2023-01-27T11:25:53.892Z,61.34
2023-01-27T11:28:30.979Z,60.92
2023-01-27T11:31:06.650Z,60.74
2023-01-27T11:34:03.805Z,61.07
2023-01-27T11:36:30.815Z,61.11
2023-01-27T11:39:06.252Z,60.79
2023-01-27T11:41:37.307Z,60.66
2023-01-27T11:44:08.997Z,60.67
2023-01-27T11:46:36.626Z,59.74
2023-01-27T11:49:03.067Z,59.49
2023-01-27T11:51:39.355Z,59.61
2023-01-27T11:54:23.452Z,59.02
2023-01-27T11:56:50.646Z,58.55
2023-01-27T11:59:25.990Z,58.84
2023-01-27T12:02:07.552Z,58.05
2023-01-27T12:04:57.804Z,58.31
2023-01-27T12:07:27.285Z,58.19
2023-01-27T12:09:54.083Z,58.36
2023-01-27T12:12:26.005Z,58.18
2023-01-27T12:15:00.544Z,58.45
2023-01-27T12:17:40.803Z,59.00
2023-01-27T12:20:28.415Z,59.15
2023-01-27T12:22:59.162Z,59.58
2023-01-27T12:25:28.830Z,59.10
2023-01-27T12:27:59.703Z,59.27
2023-01-27T12:30:29.778Z,59.43
2023-01-27T12:32:57.923Z,59.36
2023-01-27T12:35:29.551Z,59.18
2023-01-27T12:38:24.434Z,58.93
2023-01-27T12:41:01.983Z,58.05
2023-01-27T12:43:28.814Z,58.27
2023-01-27T12:46:20.119Z,58.53
2023-01-27T12:49:00.024Z,58.84
2023-01-27T12:51:54.166Z,58.32
2023-01-27T12:54:23.545Z,58.82
2023-01-27T12:56:53.143Z,59.17
2023-01-27T12:59:23.737Z,59.32
2023-01-27T13:02:30.574Z,58.82
2023-01-27T13:05:03.279Z,59.56
2023-01-27T13:07:46.164Z,59.50
2023-01-27T13:10:24.357Z,59.34
2023-01-27T13:12:54.112Z,59.05
2023-01-27T13:15:28.343Z,59.08
2023-01-27T13:17:59.733Z,58.86
2023-01-27T13:20:41.443Z,58.47
2023-01-27T13:23:15.376Z,58.79
2023-01-27T13:26:09.443Z,58.55
2023-01-27T13:28:52.213Z,58.60
2023-01-27T13:31:35.456Z,59.01
2023-01-27T13:34:13.268Z,58.78
2023-01-27T13:36:53.496Z,58.46
2023-01-27T13:39:41.639Z,58.06
2023-01-27T13:42:38.307Z,58.11
2023-01-27T13:45:06.521Z,58.34
2023-01-27T13:47:42.975Z,57.84
2023-01-27T13:50:23.174Z,57.97
2023-01-27T13:52:58.959Z,58.17
2023-01-27T13:55:43.821Z,58.56
2023-01-27T13:58:29.760Z,58.01
2023-01-27T14:01:33.674Z,58.55
2023-01-27T14:04:42.416Z,58.57
2023-01-27T14:07:25.476Z,58.79
2023-01-27T14:10:03.821Z,58.52
2023-01-27T14:12:36.083Z,59.11
2023-01-27T14:15:08.577Z,58.54
2023-01-27T14:17:39.993Z,58.82
2023-01-27T14:20:13.359Z,58.69
2023-01-27T14:22:46.257Z,58.66
2023-01-27T14:25:12.658Z,57.94
2023-01-27T14:27:45.436Z,58.30
2023-01-27T14:30:42.643Z,58.64
2023-01-27T14:33:16.903Z,59.12
2023-01-27T14:35:59.933Z,59.17
2023-01-27T14:38:29.101Z,59.02
2023-01-27T14:41:14.232Z,59.17
2023-01-27T14:44:14.758Z,59.18
2023-01-27T14:46:57.830Z,58.29
2023-01-27T14:49:44.100Z,58.56
2023-01-27T14:52:10.417Z,58.46
2023-01-27T14:54:49.653Z,58.56
2023-01-27T14:57:42.993Z,58.37
2023-01-27T15:00:21.449Z,58.09
2023-01-27T15:03:03.049Z,58.44
2023-01-27T15:05:54.364Z,58.24
2023-01-27T15:08:52.132Z,58.02
2023-01-27T15:11:43.958Z,57.94
2023-01-27T15:14:43.592Z,57.98
2023-01-27T15:17:33.245Z,58.15
2023-01-27T15:20:13.863Z,58.54
2023-01-27T15:23:18.263Z,58.40
2023-01-27T15:25:48.388Z,58.89
2023-01-27T15:28:17.958Z,58.52
2023-01-27T15:31:06.385Z,58.97
2023-01-27T15:34:14.133Z,58.99
2023-01-27T15:37:00.030Z,58.81
2023-01-27T15:39:40.323Z,58.42
2023-01-27T15:42:19.844Z,58.58
2023-01-27T15:45:01.961Z,58.55
2023-01-27T15:47:37.405Z,58.60
2023-01-27T15:50:20.091Z,58.94
2023-01-27T15:52:47.941Z,59.08
2023-01-27T15:55:29.960Z,59.10
2023-01-27T15:58:05.278Z,58.77
2023-01-27T16:00:37.671Z,59.07
2023-01-27T16:03:15.234Z,58.98
2023-01-27T16:05:45.790Z,59.13
2023-01-27T16:08:14.688Z,58.94
2023-01-27T16:10:42.442Z,59.38
2023-01-27T16:13:23.141Z,58.96
2023-01-27T16:16:10.122Z,59.01
2023-01-27T16:19:03.372Z,59.44
2023-01-27T16:21:54.801Z,59.12
2023-01-27T16:24:28.777Z,59.32
2023-01-27T16:27:33.715Z,59.17
2023-01-27T16:30:27.967Z,59.31
2023-01-27T16:33:33.074Z,59.56
2023-01-27T16:36:25.547Z,59.15
2023-01-27T16:38:52.974Z,58.90
2023-01-27T16:41:26.378Z,58.87
2023-01-27T16:44:02.567Z,58.96
2023-01-27T16:46:39.943Z,58.97
2023-01-27T16:49:18.566Z,59.25
2023-01-27T16:51:45.835Z,59.54
2023-01-27T16:54:35.998Z,59.10
2023-01-27T16:57:07.650Z,59.60
2023-01-27T16:59:37.868Z,59.58
2023-01-27T17:02:20.598Z,59.52
2023-01-27T17:04:56.263Z,59.06
2023-01-27T17:07:22.777Z,59.02
2023-01-27T17:09:51.951Z,59.38
2023-01-27T17:12:31.847Z,59.76
2023-01-27T17:14:59.380Z,59.64
2023-01-27T17:17:29.426Z,59.48
2023-01-27T17:20:02.101Z,59.59
2023-01-27T17:22:38.863Z,59.75
2023-01-27T17:25:14.812Z,59.72
2023-01-27T17:27:43.936Z,59.60
2023-01-27T17:30:10.307Z,59.54
2023-01-27T17:32:42.010Z,59.02
2023-01-27T17:35:30.668Z,59.08
2023-01-27T17:38:13.372Z,59.11
2023-01-27T17:40:43.727Z,58.08
2023-01-27T17:43:25.394Z,58.23
2023-01-27T17:46:10.697Z,58.10
2023-01-27T17:48:40.910Z,57.70
2023-01-27T17:51:12.802Z,57.90
2023-01-27T17:53:41.543Z,57.47
2023-01-27T17:56:18.806Z,57.32
2023-01-27T17:58:46.782Z,56.89
2023-01-27T18:01:15.329Z,57.22
2023-01-27T18:03:41.901Z,57.06
2023-01-27T18:06:13.431Z,56.56
2023-01-27T18:08:48.762Z,56.70
2023-01-27T18:11:23.279Z,56.89
2023-01-27T18:13:54.101Z,56.69
2023-01-27T18:16:23.524Z,56.50
2023-01-27T18:18:50.566Z,56.17
2023-01-27T18:21:22.298Z,56.20
2023-01-27T18:23:57.125Z,56.06
2023-01-27T18:26:41.214Z,55.64
2023-01-27T18:29:17.414Z,55.77
2023-01-27T18:31:49.675Z,55.87
2023-01-27T18:34:31.347Z,55.81
2023-01-27T18:37:02.343Z,56.25
2023-01-27T18:39:37.242Z,56.25
2023-01-27T18:42:10.003Z,55.89
2023-01-27T18:44:37.089Z,55.78
2023-01-27T18:47:18.548Z,56.16
2023-01-27T18:49:57.800Z,56.14
2023-01-27T18:52:24.172Z,56.03
2023-01-27T18:54:56.071Z,56.03
2023-01-27T18:57:22.602Z,56.26
2023-01-27T18:59:48.957Z,56.19
2023-01-27T19:02:16.289Z,55.63
2023-01-27T19:04:43.327Z,56.07
2023-01-27T19:07:12.665Z,55.85
2023-01-27T19:09:39.260Z,55.39
2023-01-27T19:12:06.030Z,55.50
2023-01-27T19:14:34.697Z,55.74
2023-01-27T19:17:01.481Z,55.48
2023-01-27T19:19:27.866Z,55.63
2023-01-27T19:21:54.307Z,56.17
2023-01-27T19:24:20.755Z,55.90
2023-01-27T19:26:47.113Z,56.40
2023-01-27T19:29:14.275Z,56.63
2023-01-27T19:31:40.774Z,56.43
2023-01-27T19:34:10.849Z,56.98
2023-01-27T19:36:42.242Z,57.03
2023-01-27T19:39:09.116Z,57.20
2023-01-27T19:41:35.471Z,56.83
2023-01-27T19:44:01.966Z,56.59
2023-01-27T19:46:28.388Z,56.60
2023-01-27T19:48:55.560Z,56.91
2023-01-27T19:51:22.099Z,56.88
2023-01-27T19:53:48.484Z,56.85
2023-01-27T19:56:17.856Z,56.94
2023-01-27T19:58:52.690Z,56.29
2023-01-27T20:01:20.328Z,56.82
2023-01-27T20:03:46.936Z,56.80
2023-01-27T20:06:17.416Z,56.85
2023-01-27T20:08:44.377Z,56.75
2023-01-27T20:11:39.964Z,56.63
2023-01-27T20:14:14.073Z,56.89
2023-01-27T20:16:41.586Z,56.70
2023-01-27T20:19:08.179Z,56.38
2023-01-27T20:21:34.745Z,56.24
2023-01-27T20:24:01.820Z,56.32
2023-01-27T20:26:29.763Z,55.90
2023-01-27T20:28:56.270Z,56.12
2023-01-27T20:31:22.709Z,55.99
2023-01-27T20:33:50.186Z,56.09
2023-01-27T20:36:23.300Z,56.09
2023-01-27T20:38:50.996Z,56.16
2023-01-27T20:41:19.631Z,56.15
2023-01-27T20:43:46.496Z,56.24
2023-01-27T20:46:15.470Z,55.84
2023-01-27T20:48:42.172Z,56.21
2023-01-27T20:51:12.455Z,56.51
2023-01-27T20:53:45.328Z,56.54
2023-01-27T20:56:17.714Z,56.46
2023-01-27T20:58:44.904Z,55.88
2023-01-27T21:01:22.979Z,56.26
2023-01-27T21:03:50.474Z,55.89
2023-01-27T21:06:19.377Z,55.44
2023-01-27T21:08:47.805Z,55.73
2023-01-27T21:11:15.942Z,55.53
2023-01-27T21:13:42.399Z,55.68
2023-01-27T21:16:09.271Z,55.71
2023-01-27T21:18:36.463Z,55.73
2023-01-27T21:21:04.120Z,55.49
2023-01-27T21:23:32.915Z,56.03
2023-01-27T21:26:10.689Z,55.80
2023-01-27T21:28:37.187Z,55.63
2023-01-27T21:31:12.129Z,55.97
2023-01-27T21:36:14.548Z,55.76
2023-01-27T21:38:41.019Z,55.54
2023-01-27T21:41:13.496Z,56.03
2023-01-27T21:43:58.480Z,55.46
2023-01-27T21:46:24.894Z,55.12
2023-01-27T21:48:51.431Z,55.03
2023-01-27T21:51:17.769Z,55.26
2023-01-27T21:53:44.140Z,54.94
2023-01-27T21:56:11.202Z,55.43
2023-01-27T21:58:37.873Z,55.08
2023-01-27T22:01:09.266Z,55.09
2023-01-27T22:03:36.864Z,55.29
2023-01-27T22:06:05.719Z,55.39
2023-01-27T22:08:32.455Z,55.22
2023-01-27T22:11:12.211Z,55.68
2023-01-27T22:13:38.998Z,55.54
2023-01-27T22:16:06.082Z,55.38
2023-01-27T22:18:32.566Z,55.33
2023-01-27T22:21:02.362Z,55.28
2023-01-27T22:23:28.804Z,55.41
2023-01-27T22:25:55.202Z,55.47
2023-01-27T22:28:23.163Z,55.54
2023-01-27T22:30:49.814Z,55.61
2023-01-27T22:33:16.649Z,55.21
2023-01-27T22:35:43.184Z,55.09
2023-01-27T22:38:09.926Z,55.01
2023-01-27T22:40:36.291Z,55.08
2023-01-27T22:43:09.274Z,54.96
2023-01-27T22:45:39.533Z,54.98
2023-01-27T22:48:06.230Z,54.86
2023-01-27T22:50:32.584Z,54.57
2023-01-27T22:52:58.913Z,54.60
2023-01-27T22:55:25.318Z,55.02
2023-01-27T22:57:51.673Z,54.63
2023-01-27T23:00:18.384Z,54.46
2023-01-27T23:02:44.911Z,54.55
2023-01-27T23:05:11.785Z,54.83
2023-01-27T23:07:38.261Z,54.78
2023-01-27T23:10:05.333Z,54.75
2023-01-27T23:12:31.695Z,54.66
2023-01-27T23:15:01.553Z,54.61
2023-01-27T23:17:28.070Z,54.30
2023-01-27T23:19:54.438Z,54.56
2023-01-27T23:22:20.795Z,54.47
2023-01-27T23:24:47.440Z,54.26
2023-01-27T23:27:13.811Z,54.14
2023-01-27T23:29:40.156Z,54.08
2023-01-27T23:32:06.665Z,53.81
2023-01-27T23:34:32.992Z,54.01
2023-01-27T23:36:59.319Z,54.09
2023-01-27T23:39:25.781Z,53.71
2023-01-27T23:41:52.149Z,54.13
2023-01-27T23:44:18.480Z,54.28
2023-01-27T23:46:44.948Z,54.28
2023-01-27T23:49:12.220Z,54.47
2023-01-27T23:51:38.614Z,54.67
2023-01-27T23:54:05.199Z,54.34
2023-01-27T23:56:31.549Z,54.50
2023-01-27T23:58:57.939Z,53.94
